sensor_id;sensor_type;location;lat;lon;timestamp;pressure;altitude;pressure_sealevel;temperature;humidity
83118;BME280;73000;51.784;4.660;2023-10-19T00:00:47;99344.72;;;12.81;94.20
83118;BME280;73000;51.784;4.660;2023-10-19T00:03:17;99348.31;;;12.82;94.22
83118;BME280;73000;51.784;4.660;2023-10-19T00:05:43;99344.38;;;12.83;93.92
83118;BME280;73000;51.784;4.660;2023-10-19T00:08:10;99346.94;;;12.88;94.37
83118;BME280;73000;51.784;4.660;2023-10-19T00:10:40;99336.78;;;12.92;94.21
83118;BME280;73000;51.784;4.660;2023-10-19T00:13:10;99342.81;;;12.94;94.68
83118;BME280;73000;51.784;4.660;2023-10-19T00:15:40;99341.31;;;12.96;94.41
83118;BME280;73000;51.784;4.660;2023-10-19T00:18:09;99336.94;;;12.95;94.82
83118;BME280;73000;51.784;4.660;2023-10-19T00:20:44;99331.66;;;13.02;94.31
83118;BME280;73000;51.784;4.660;2023-10-19T00:23:14;99344.16;;;13.08;94.39
83118;BME280;73000;51.784;4.660;2023-10-19T00:25:46;99339.78;;;13.07;94.12
83118;BME280;73000;51.784;4.660;2023-10-19T00:28:17;99338.63;;;13.08;94.53
83118;BME280;73000;51.784;4.660;2023-10-19T00:30:43;99337.72;;;13.16;94.07
83118;BME280;73000;51.784;4.660;2023-10-19T00:33:10;99333.00;;;13.17;94.42
83118;BME280;73000;51.784;4.660;2023-10-19T00:35:53;99333.44;;;13.19;94.49
83118;BME280;73000;51.784;4.660;2023-10-19T00:38:35;99336.38;;;13.22;94.47
83118;BME280;73000;51.784;4.660;2023-10-19T00:41:01;99335.31;;;13.27;94.64
83118;BME280;73000;51.784;4.660;2023-10-19T00:43:37;99339.50;;;13.33;94.52
83118;BME280;73000;51.784;4.660;2023-10-19T00:46:08;99343.22;;;13.37;94.33
83118;BME280;73000;51.784;4.660;2023-10-19T00:48:39;99345.91;;;13.45;94.09
83118;BME280;73000;51.784;4.660;2023-10-19T00:51:05;99353.81;;;13.55;93.30
83118;BME280;73000;51.784;4.660;2023-10-19T00:53:38;99354.03;;;13.62;92.96
83118;BME280;73000;51.784;4.660;2023-10-19T00:56:06;99359.38;;;13.67;92.88
83118;BME280;73000;51.784;4.660;2023-10-19T00:58:35;99375.13;;;13.75;93.39
83118;BME280;73000;51.784;4.660;2023-10-19T01:01:04;99361.94;;;13.96;93.08
83118;BME280;73000;51.784;4.660;2023-10-19T01:03:34;99358.38;;;14.08;93.69
83118;BME280;73000;51.784;4.660;2023-10-19T01:06:04;99360.34;;;14.19;93.97
83118;BME280;73000;51.784;4.660;2023-10-19T01:08:37;99369.50;;;14.32;93.95
83118;BME280;73000;51.784;4.660;2023-10-19T01:11:10;99357.22;;;14.45;93.82
83118;BME280;73000;51.784;4.660;2023-10-19T01:13:39;99359.50;;;14.55;93.97
83118;BME280;73000;51.784;4.660;2023-10-19T01:16:12;99364.03;;;14.59;94.07
83118;BME280;73000;51.784;4.660;2023-10-19T01:18:41;99365.84;;;14.67;93.73
83118;BME280;73000;51.784;4.660;2023-10-19T01:21:08;99364.25;;;14.66;93.61
83118;BME280;73000;51.784;4.660;2023-10-19T01:23:35;99368.19;;;14.65;93.07
83118;BME280;73000;51.784;4.660;2023-10-19T01:26:01;99365.50;;;14.69;93.39
83118;BME280;73000;51.784;4.660;2023-10-19T01:28:36;99357.06;;;14.65;93.02
83118;BME280;73000;51.784;4.660;2023-10-19T01:31:09;99363.53;;;14.69;93.04
83118;BME280;73000;51.784;4.660;2023-10-19T01:33:40;99359.25;;;14.72;93.01
83118;BME280;73000;51.784;4.660;2023-10-19T01:36:07;99363.53;;;14.69;92.97
83118;BME280;73000;51.784;4.660;2023-10-19T01:38:54;99364.81;;;14.72;92.84
83118;BME280;73000;51.784;4.660;2023-10-19T01:41:22;99362.59;;;14.77;92.69
83118;BME280;73000;51.784;4.660;2023-10-19T01:43:50;99349.13;;;14.79;92.44
83118;BME280;73000;51.784;4.660;2023-10-19T01:46:19;99358.28;;;14.80;92.36
83118;BME280;73000;51.784;4.660;2023-10-19T01:49:02;99355.25;;;14.85;92.19
83118;BME280;73000;51.784;4.660;2023-10-19T01:51:29;99354.34;;;14.81;92.78
83118;BME280;73000;51.784;4.660;2023-10-19T01:53:58;99355.84;;;14.78;92.07
83118;BME280;73000;51.784;4.660;2023-10-19T01:56:25;99360.94;;;14.89;92.02
83118;BME280;73000;51.784;4.660;2023-10-19T01:58:51;99357.25;;;14.85;92.92
83118;BME280;73000;51.784;4.660;2023-10-19T02:01:17;99356.78;;;14.82;93.15
83118;BME280;73000;51.784;4.660;2023-10-19T02:03:54;99358.41;;;14.84;92.67
83118;BME280;73000;51.784;4.660;2023-10-19T02:06:23;99360.47;;;14.87;92.13
83118;BME280;73000;51.784;4.660;2023-10-19T02:09:09;99357.59;;;14.83;91.76
83118;BME280;73000;51.784;4.660;2023-10-19T02:11:45;99357.25;;;14.85;92.31
83118;BME280;73000;51.784;4.660;2023-10-19T02:14:14;99350.75;;;14.81;92.75
83118;BME280;73000;51.784;4.660;2023-10-19T02:16:45;99333.38;;;14.84;91.73
83118;BME280;73000;51.784;4.660;2023-10-19T02:19:13;99338.19;;;14.87;91.65
83118;BME280;73000;51.784;4.660;2023-10-19T02:21:38;99342.41;;;14.81;91.51
83118;BME280;73000;51.784;4.660;2023-10-19T02:24:09;99334.16;;;14.84;91.64
83118;BME280;73000;51.784;4.660;2023-10-19T02:26:35;99335.88;;;14.89;91.34
83118;BME280;73000;51.784;4.660;2023-10-19T02:29:02;99332.97;;;14.85;91.50
83118;BME280;73000;51.784;4.660;2023-10-19T02:31:33;99342.41;;;14.81;91.05
83118;BME280;73000;51.784;4.660;2023-10-19T02:33:58;99332.19;;;14.85;91.13
83118;BME280;73000;51.784;4.660;2023-10-19T02:36:25;99335.59;;;14.78;91.67
83118;BME280;73000;51.784;4.660;2023-10-19T02:38:54;99325.72;;;14.81;90.96
83118;BME280;73000;51.784;4.660;2023-10-19T02:41:20;99329.56;;;14.76;90.40
83118;BME280;73000;51.784;4.660;2023-10-19T02:43:46;99340.78;;;14.79;90.61
83118;BME280;73000;51.784;4.660;2023-10-19T02:46:15;99322.03;;;14.77;91.17
83118;BME280;73000;51.784;4.660;2023-10-19T02:48:45;99325.72;;;14.81;90.70
83118;BME280;73000;51.784;4.660;2023-10-19T02:51:12;99316.91;;;14.78;90.18
83118;BME280;73000;51.784;4.660;2023-10-19T02:53:39;99318.88;;;14.78;90.26
83118;BME280;73000;51.784;4.660;2023-10-19T02:56:12;99322.72;;;14.73;90.24
83118;BME280;73000;51.784;4.660;2023-10-19T02:58:43;99340.38;;;14.65;91.26
83118;BME280;73000;51.784;4.660;2023-10-19T03:01:13;99330.94;;;14.70;90.57
83118;BME280;73000;51.784;4.660;2023-10-19T03:03:39;99326.56;;;14.69;90.81
83118;BME280;73000;51.784;4.660;2023-10-19T03:06:04;99318.41;;;14.76;89.90
83118;BME280;73000;51.784;4.660;2023-10-19T03:08:31;99318.31;;;14.73;89.86
83118;BME280;73000;51.784;4.660;2023-10-19T03:10:57;99309.84;;;14.69;89.53
83118;BME280;73000;51.784;4.660;2023-10-19T03:13:32;99323.28;;;14.79;89.28
83118;BME280;73000;51.784;4.660;2023-10-19T03:15:59;99314.94;;;14.79;89.24
83118;BME280;73000;51.784;4.660;2023-10-19T03:18:26;99313.19;;;14.74;89.41
83118;BME280;73000;51.784;4.660;2023-10-19T03:20:51;99316.25;;;14.69;89.51
83118;BME280;73000;51.784;4.660;2023-10-19T03:23:17;99306.28;;;14.68;88.66
83118;BME280;73000;51.784;4.660;2023-10-19T03:25:42;99309.97;;;14.73;88.17
83118;BME280;73000;51.784;4.660;2023-10-19T03:28:26;99316.84;;;14.63;88.04
83118;BME280;73000;51.784;4.660;2023-10-19T03:30:51;99316.63;;;14.56;88.51
83118;BME280;73000;51.784;4.660;2023-10-19T03:33:20;99311.28;;;14.51;88.37
83118;BME280;73000;51.784;4.660;2023-10-19T03:35:45;99300.91;;;14.36;88.66
83118;BME280;73000;51.784;4.660;2023-10-19T03:38:11;99313.09;;;14.31;88.67
83118;BME280;73000;51.784;4.660;2023-10-19T03:40:41;99309.59;;;14.22;88.92
83118;BME280;73000;51.784;4.660;2023-10-19T03:43:11;99307.53;;;14.19;88.81
83118;BME280;73000;51.784;4.660;2023-10-19T03:45:44;99301.59;;;14.21;89.13
83118;BME280;73000;51.784;4.660;2023-10-19T03:48:20;99306.81;;;14.10;89.16
83118;BME280;73000;51.784;4.660;2023-10-19T03:50:52;99307.63;;;14.11;88.72
83118;BME280;73000;51.784;4.660;2023-10-19T03:53:20;99303.13;;;14.06;88.94
83118;BME280;73000;51.784;4.660;2023-10-19T03:55:46;99312.63;;;14.05;89.07
83118;BME280;73000;51.784;4.660;2023-10-19T03:58:12;99310.44;;;13.99;89.19
83118;BME280;73000;51.784;4.660;2023-10-19T04:00:40;99301.16;;;13.95;89.53
83118;BME280;73000;51.784;4.660;2023-10-19T04:03:06;99294.78;;;13.94;89.46
83118;BME280;73000;51.784;4.660;2023-10-19T04:05:32;99301.28;;;13.98;89.14
83118;BME280;73000;51.784;4.660;2023-10-19T04:08:04;99305.56;;;13.96;89.62
83118;BME280;73000;51.784;4.660;2023-10-19T04:10:37;99305.56;;;13.96;89.06
83118;BME280;73000;51.784;4.660;2023-10-19T04:13:03;99300.22;;;13.91;89.44
83118;BME280;73000;51.784;4.660;2023-10-19T04:15:29;99300.69;;;13.93;89.38
83118;BME280;73000;51.784;4.660;2023-10-19T04:17:54;99319.81;;;13.94;89.13
83118;BME280;73000;51.784;4.660;2023-10-19T04:20:23;99306.34;;;13.96;89.04
83118;BME280;73000;51.784;4.660;2023-10-19T04:23:00;99307.75;;;13.90;89.18
83118;BME280;73000;51.784;4.660;2023-10-19T04:25:35;99303.72;;;13.88;88.99
83118;BME280;73000;51.784;4.660;2023-10-19T04:28:00;99317.63;;;13.88;89.46
83118;BME280;73000;51.784;4.660;2023-10-19T04:30:25;99309.03;;;13.93;88.98
83118;BME280;73000;51.784;4.660;2023-10-19T04:32:51;99324.31;;;13.87;89.16
83118;BME280;73000;51.784;4.660;2023-10-19T04:35:18;99318.66;;;13.83;89.37
83118;BME280;73000;51.784;4.660;2023-10-19T04:37:50;99317.97;;;13.86;89.62
83118;BME280;73000;51.784;4.660;2023-10-19T04:40:17;99318.88;;;13.90;89.26
83118;BME280;73000;51.784;4.660;2023-10-19T04:42:43;99308.44;;;13.87;89.60
83118;BME280;73000;51.784;4.660;2023-10-19T04:45:08;99318.06;;;13.90;89.70
83118;BME280;73000;51.784;4.660;2023-10-19T04:47:36;99318.97;;;13.94;89.36
83118;BME280;73000;51.784;4.660;2023-10-19T04:50:02;99320.63;;;14.07;89.02
83118;BME280;73000;51.784;4.660;2023-10-19T04:52:31;99321.41;;;14.07;88.81
83118;BME280;73000;51.784;4.660;2023-10-19T04:54:57;99312.16;;;14.03;89.15
83118;BME280;73000;51.784;4.660;2023-10-19T04:57:22;99316.56;;;14.04;88.93
83118;BME280;73000;51.784;4.660;2023-10-19T04:59:48;99323.84;;;14.09;89.17
83118;BME280;73000;51.784;4.660;2023-10-19T05:02:13;99318.97;;;14.06;88.97
83118;BME280;73000;51.784;4.660;2023-10-19T05:04:38;99317.94;;;14.10;88.67
83118;BME280;73000;51.784;4.660;2023-10-19T05:07:05;99324.75;;;14.13;88.98
83118;BME280;73000;51.784;4.660;2023-10-19T05:09:32;99327.69;;;14.16;88.80
83118;BME280;73000;51.784;4.660;2023-10-19T05:11:57;99326.16;;;14.19;88.46
83118;BME280;73000;51.784;4.660;2023-10-19T05:14:22;99332.06;;;14.17;88.56
83118;BME280;73000;51.784;4.660;2023-10-19T05:16:48;99328.81;;;14.15;88.74
83118;BME280;73000;51.784;4.660;2023-10-19T05:19:14;99322.13;;;14.16;88.99
83118;BME280;73000;51.784;4.660;2023-10-19T05:21:39;99328.38;;;14.13;88.93
83118;BME280;73000;51.784;4.660;2023-10-19T05:24:05;99333.25;;;14.16;88.77
83118;BME280;73000;51.784;4.660;2023-10-19T05:26:33;99337.41;;;14.22;88.58
83118;BME280;73000;51.784;4.660;2023-10-19T05:28:58;99326.78;;;14.24;88.06
83118;BME280;73000;51.784;4.660;2023-10-19T05:31:23;99329.56;;;14.24;88.29
83118;BME280;73000;51.784;4.660;2023-10-19T05:33:49;99331.84;;;14.22;88.76
83118;BME280;73000;51.784;4.660;2023-10-19T05:36:15;99339.16;;;14.27;88.38
83118;BME280;73000;51.784;4.660;2023-10-19T05:38:40;99332.78;;;14.26;88.37
83118;BME280;73000;51.784;4.660;2023-10-19T05:41:06;99333.25;;;14.28;88.50
83118;BME280;73000;51.784;4.660;2023-10-19T05:43:33;99332.22;;;14.33;88.66
83118;BME280;73000;51.784;4.660;2023-10-19T05:46:00;99337.19;;;14.39;88.29
83118;BME280;73000;51.784;4.660;2023-10-19T05:48:25;99337.06;;;14.36;88.50
83118;BME280;73000;51.784;4.660;2023-10-19T05:50:51;99327.56;;;14.37;88.49
83118;BME280;73000;51.784;4.660;2023-10-19T05:53:16;99327.09;;;14.35;88.50
83118;BME280;73000;51.784;4.660;2023-10-19T05:55:44;99324.56;;;14.30;88.60
83118;BME280;73000;51.784;4.660;2023-10-19T05:58:09;99322.56;;;14.30;88.95
83118;BME280;73000;51.784;4.660;2023-10-19T06:00:35;99325.00;;;14.32;88.59
83118;BME280;73000;51.784;4.660;2023-10-19T06:03:00;99332.56;;;14.31;89.06
83118;BME280;73000;51.784;4.660;2023-10-19T06:05:25;99329.09;;;14.34;88.72
83118;BME280;73000;51.784;4.660;2023-10-19T06:07:51;99327.09;;;14.35;88.68
83118;BME280;73000;51.784;4.660;2023-10-19T06:10:20;99341.00;;;14.35;88.75
83118;BME280;73000;51.784;4.660;2023-10-19T06:12:51;99342.75;;;14.39;88.62
83118;BME280;73000;51.784;4.660;2023-10-19T06:15:18;99351.44;;;14.38;88.74
83118;BME280;73000;51.784;4.660;2023-10-19T06:17:46;99348.19;;;14.36;88.71
83118;BME280;73000;51.784;4.660;2023-10-19T06:20:13;99352.34;;;14.42;88.37
83118;BME280;73000;51.784;4.660;2023-10-19T06:22:55;99359.66;;;14.46;88.16
83118;BME280;73000;51.784;4.660;2023-10-19T06:25:23;99361.63;;;14.46;88.37
83118;BME280;73000;51.784;4.660;2023-10-19T06:27:49;99359.53;;;14.43;88.27
83118;BME280;73000;51.784;4.660;2023-10-19T06:30:15;99366.13;;;14.50;88.55
83118;BME280;73000;51.784;4.660;2023-10-19T06:32:48;99365.66;;;14.48;88.22
83118;BME280;73000;51.784;4.660;2023-10-19T06:35:13;99371.91;;;14.45;88.46
83118;BME280;73000;51.784;4.660;2023-10-19T06:37:38;99371.34;;;14.52;88.25
83118;BME280;73000;51.784;4.660;2023-10-19T06:40:05;99375.63;;;14.49;88.33
83118;BME280;73000;51.784;4.660;2023-10-19T06:42:31;99372.97;;;14.53;88.05
83118;BME280;73000;51.784;4.660;2023-10-19T06:44:57;99368.91;;;14.50;88.54
83118;BME280;73000;51.784;4.660;2023-10-19T06:47:22;99371.44;;;14.55;88.25
83118;BME280;73000;51.784;4.660;2023-10-19T06:49:48;99368.31;;;14.57;87.83
83118;BME280;73000;51.784;4.660;2023-10-19T06:52:13;99358.38;;;14.56;88.67
83118;BME280;73000;51.784;4.660;2023-10-19T06:54:39;99370.50;;;14.63;88.36
83118;BME280;73000;51.784;4.660;2023-10-19T06:57:04;99365.63;;;14.60;88.41
83118;BME280;73000;51.784;4.660;2023-10-19T06:59:30;99372.13;;;14.64;87.98
83118;BME280;73000;51.784;4.660;2023-10-19T07:01:58;99367.03;;;14.66;88.08
83118;BME280;73000;51.784;4.660;2023-10-19T07:04:26;99372.59;;;14.66;88.49
83118;BME280;73000;51.784;4.660;2023-10-19T07:06:51;99380.00;;;14.74;87.98
83118;BME280;73000;51.784;4.660;2023-10-19T07:09:16;99378.72;;;14.72;88.08
83118;BME280;73000;51.784;4.660;2023-10-19T07:11:43;99373.16;;;14.72;87.81
83118;BME280;73000;51.784;4.660;2023-10-19T07:14:10;99374.44;;;14.74;88.09
83118;BME280;73000;51.784;4.660;2023-10-19T07:16:35;99359.81;;;14.77;87.95
83118;BME280;73000;51.784;4.660;2023-10-19T07:19:01;99368.25;;;14.81;87.78
83118;BME280;73000;51.784;4.660;2023-10-19T07:21:26;99368.81;;;14.87;87.80
83118;BME280;73000;51.784;4.660;2023-10-19T07:23:54;99375.78;;;14.93;87.76
83118;BME280;73000;51.784;4.660;2023-10-19T07:26:21;99376.34;;;14.98;87.14
83118;BME280;73000;51.784;4.660;2023-10-19T07:28:55;99378.22;;;14.94;87.98
83118;BME280;73000;51.784;4.660;2023-10-19T07:31:20;99375.53;;;14.98;87.10
83118;BME280;73000;51.784;4.660;2023-10-19T07:33:47;99370.41;;;15.00;87.50
83118;BME280;73000;51.784;4.660;2023-10-19T07:36:15;99368.53;;;15.04;87.04
83118;BME280;73000;51.784;4.660;2023-10-19T07:38:40;99367.38;;;15.05;87.21
83118;BME280;73000;51.784;4.660;2023-10-19T07:41:07;99368.63;;;15.07;87.42
83118;BME280;73000;51.784;4.660;2023-10-19T07:43:35;99372.69;;;15.10;87.17
83118;BME280;73000;51.784;4.660;2023-10-19T07:46:01;99368.03;;;15.14;87.34
83118;BME280;73000;51.784;4.660;2023-10-19T07:48:26;99365.50;;;15.09;87.56
83118;BME280;73000;51.784;4.660;2023-10-19T07:50:52;99371.28;;;15.16;87.09
83118;BME280;73000;51.784;4.660;2023-10-19T07:53:18;99371.56;;;15.26;87.16
83118;BME280;73000;51.784;4.660;2023-10-19T07:55:44;99365.78;;;15.31;86.79
83118;BME280;73000;51.784;4.660;2023-10-19T07:58:10;99368.09;;;15.29;86.96
83118;BME280;73000;51.784;4.660;2023-10-19T08:00:35;99361.47;;;15.34;86.68
83118;BME280;73000;51.784;4.660;2023-10-19T08:03:02;99358.09;;;15.40;86.42
83118;BME280;73000;51.784;4.660;2023-10-19T08:05:28;99365.19;;;15.53;85.88
83118;BME280;73000;51.784;4.660;2023-10-19T08:07:53;99362.78;;;15.67;85.72
83118;BME280;73000;51.784;4.660;2023-10-19T08:10:19;99358.66;;;15.77;85.67
83118;BME280;73000;51.784;4.660;2023-10-19T08:12:47;99365.41;;;16.07;84.39
83118;BME280;73000;51.784;4.660;2023-10-19T08:15:13;99360.63;;;16.23;83.88
83118;BME280;73000;51.784;4.660;2023-10-19T08:17:43;99351.16;;;16.58;82.76
83118;BME280;73000;51.784;4.660;2023-10-19T08:20:11;99348.47;;;16.81;82.05
83118;BME280;73000;51.784;4.660;2023-10-19T08:23:02;99355.31;;;17.02;81.35
83118;BME280;73000;51.784;4.660;2023-10-19T08:25:28;99354.06;;;17.19;80.28
83118;BME280;73000;51.784;4.660;2023-10-19T08:27:54;99353.03;;;17.08;79.95
83118;BME280;73000;51.784;4.660;2023-10-19T08:30:23;99362.44;;;17.38;79.66
83118;BME280;73000;51.784;4.660;2023-10-19T08:32:48;99358.03;;;18.46;75.96
83118;BME280;73000;51.784;4.660;2023-10-19T08:35:15;99363.22;;;18.74;73.20
83118;BME280;73000;51.784;4.660;2023-10-19T08:37:41;99375.66;;;19.32;71.97
83118;BME280;73000;51.784;4.660;2023-10-19T08:40:10;99365.69;;;21.22;66.26
83118;BME280;73000;51.784;4.660;2023-10-19T08:42:41;99368.63;;;20.75;67.24
83118;BME280;73000;51.784;4.660;2023-10-19T08:45:07;99364.53;;;20.62;66.60
83118;BME280;73000;51.784;4.660;2023-10-19T08:47:35;99365.16;;;20.42;66.65
83118;BME280;73000;51.784;4.660;2023-10-19T08:50:03;99365.38;;;19.79;69.00
83118;BME280;73000;51.784;4.660;2023-10-19T08:52:30;99366.28;;;19.87;69.10
83118;BME280;73000;51.784;4.660;2023-10-19T08:54:57;99359.78;;;19.43;70.66
83118;BME280;73000;51.784;4.660;2023-10-19T08:57:23;99354.94;;;19.40;70.75
83118;BME280;73000;51.784;4.660;2023-10-19T08:59:48;99367.09;;;19.21;71.58
83118;BME280;73000;51.784;4.660;2023-10-19T09:02:14;99359.78;;;19.79;70.25
83118;BME280;73000;51.784;4.660;2023-10-19T09:04:42;99355.59;;;21.04;65.66
83118;BME280;73000;51.784;4.660;2023-10-19T09:07:08;99356.00;;;23.62;58.66
83118;BME280;73000;51.784;4.660;2023-10-19T09:09:35;99345.91;;;25.11;53.64
83118;BME280;73000;51.784;4.660;2023-10-19T09:12:06;99348.38;;;24.24;55.48
83118;BME280;73000;51.784;4.660;2023-10-19T09:14:33;99357.41;;;23.26;58.25
83118;BME280;73000;51.784;4.660;2023-10-19T09:16:58;99348.25;;;22.45;60.52
83118;BME280;73000;51.784;4.660;2023-10-19T09:19:43;99335.22;;;21.35;63.39
83118;BME280;73000;51.784;4.660;2023-10-19T09:22:09;99336.88;;;20.14;67.14
83118;BME280;73000;51.784;4.660;2023-10-19T09:24:48;99342.44;;;20.10;68.23
83118;BME280;73000;51.784;4.660;2023-10-19T09:27:17;99335.88;;;19.96;68.74
83118;BME280;73000;51.784;4.660;2023-10-19T09:29:42;99352.09;;;19.73;69.41
83118;BME280;73000;51.784;4.660;2023-10-19T09:32:08;99338.50;;;19.09;71.80
83118;BME280;73000;51.784;4.660;2023-10-19T09:34:34;99344.13;;;19.09;71.95
83118;BME280;73000;51.784;4.660;2023-10-19T09:37:00;99339.66;;;18.75;72.24
83118;BME280;73000;51.784;4.660;2023-10-19T09:39:31;99333.09;;;18.93;73.19
83118;BME280;73000;51.784;4.660;2023-10-19T09:42:06;99334.09;;;18.78;72.40
83118;BME280;73000;51.784;4.660;2023-10-19T09:44:40;99329.53;;;19.62;71.28
83118;BME280;73000;51.784;4.660;2023-10-19T09:49:37;99311.31;;;19.82;69.06
83118;BME280;73000;51.784;4.660;2023-10-19T09:52:03;99314.75;;;19.65;70.12
83118;BME280;73000;51.784;4.660;2023-10-19T09:54:54;99319.09;;;19.59;70.22
83118;BME280;73000;51.784;4.660;2023-10-19T09:57:34;99310.09;;;19.83;70.99
83118;BME280;73000;51.784;4.660;2023-10-19T10:00:03;99298.25;;;19.57;70.73
83118;BME280;73000;51.784;4.660;2023-10-19T10:02:38;99314.66;;;19.98;68.29
83118;BME280;73000;51.784;4.660;2023-10-19T10:05:04;99314.56;;;19.88;70.25
83118;BME280;73000;51.784;4.660;2023-10-19T10:07:29;99306.16;;;20.35;69.97
83118;BME280;73000;51.784;4.660;2023-10-19T10:09:56;99295.94;;;20.70;68.15
83118;BME280;73000;51.784;4.660;2023-10-19T10:12:23;99306.75;;;20.65;68.02
83118;BME280;73000;51.784;4.660;2023-10-19T10:15:03;99308.00;;;20.74;67.78
83118;BME280;73000;51.784;4.660;2023-10-19T10:17:36;99305.56;;;20.73;67.22
83118;BME280;73000;51.784;4.660;2023-10-19T10:22:40;99312.63;;;21.10;65.32
83118;BME280;73000;51.784;4.660;2023-10-19T10:25:25;99301.88;;;21.33;65.22
83118;BME280;73000;51.784;4.660;2023-10-19T10:27:51;99307.22;;;22.37;61.22
83118;BME280;73000;51.784;4.660;2023-10-19T10:30:16;99315.69;;;22.23;60.41
83118;BME280;73000;51.784;4.660;2023-10-19T10:32:47;99319.72;;;22.32;61.86
83118;BME280;73000;51.784;4.660;2023-10-19T10:38:08;99318.88;;;21.72;63.96
83118;BME280;73000;51.784;4.660;2023-10-19T10:40:46;99321.59;;;21.54;64.40
83118;BME280;73000;51.784;4.660;2023-10-19T10:43:15;99324.34;;;21.26;64.93
83118;BME280;73000;51.784;4.660;2023-10-19T10:45:41;99327.41;;;20.93;66.36
83118;BME280;73000;51.784;4.660;2023-10-19T10:48:14;99329.03;;;20.37;67.54
83118;BME280;73000;51.784;4.660;2023-10-19T10:50:39;99328.16;;;20.26;68.31
83118;BME280;73000;51.784;4.660;2023-10-19T10:53:06;99335.81;;;19.89;69.47
83118;BME280;73000;51.784;4.660;2023-10-19T10:55:31;99327.31;;;19.78;70.73
83118;BME280;73000;51.784;4.660;2023-10-19T10:57:57;99322.53;;;19.82;70.64
83118;BME280;73000;51.784;4.660;2023-10-19T11:00:23;99317.41;;;19.91;70.13
83118;BME280;73000;51.784;4.660;2023-10-19T11:03:06;99319.41;;;19.91;70.13
83118;BME280;73000;51.784;4.660;2023-10-19T11:05:33;99317.47;;;19.98;70.08
83118;BME280;73000;51.784;4.660;2023-10-19T11:08:13;99312.66;;;19.99;69.98
83118;BME280;73000;51.784;4.660;2023-10-19T11:10:40;99307.59;;;19.71;70.91
83118;BME280;73000;51.784;4.660;2023-10-19T11:13:08;99304.19;;;19.95;69.98
83118;BME280;73000;51.784;4.660;2023-10-19T11:15:35;99299.19;;;20.18;68.80
83118;BME280;73000;51.784;4.660;2023-10-19T11:18:02;99285.31;;;19.92;68.54
83118;BME280;73000;51.784;4.660;2023-10-19T11:20:28;99277.41;;;19.58;70.18
83118;BME280;73000;51.784;4.660;2023-10-19T11:22:54;99282.03;;;19.40;71.19
83118;BME280;73000;51.784;4.660;2023-10-19T11:25:29;99276.00;;;19.38;71.37
83118;BME280;73000;51.784;4.660;2023-10-19T11:27:56;99270.13;;;19.50;71.76
83118;BME280;73000;51.784;4.660;2023-10-19T11:30:29;99280.16;;;19.18;72.05
83118;BME280;73000;51.784;4.660;2023-10-19T11:32:56;99277.94;;;19.30;72.46
83118;BME280;73000;51.784;4.660;2023-10-19T11:35:26;99277.16;;;19.00;72.78
83118;BME280;73000;51.784;4.660;2023-10-19T11:37:54;99274.81;;;19.06;72.67
83118;BME280;73000;51.784;4.660;2023-10-19T11:40:20;99271.28;;;18.79;74.46
83118;BME280;73000;51.784;4.660;2023-10-19T11:42:47;99267.63;;;18.75;75.42
83118;BME280;73000;51.784;4.660;2023-10-19T11:45:13;99263.97;;;18.71;75.25
83118;BME280;73000;51.784;4.660;2023-10-19T11:47:38;99264.06;;;18.78;74.85
83118;BME280;73000;51.784;4.660;2023-10-19T11:50:04;99267.56;;;18.68;75.42
83118;BME280;73000;51.784;4.660;2023-10-19T11:52:30;99260.94;;;18.54;74.78
83118;BME280;73000;51.784;4.660;2023-10-19T11:54:56;99252.13;;;18.52;75.91
83118;BME280;73000;51.784;4.660;2023-10-19T11:57:21;99255.47;;;18.35;76.21
83118;BME280;73000;51.784;4.660;2023-10-19T11:59:46;99260.22;;;18.34;76.53
83118;BME280;73000;51.784;4.660;2023-10-19T12:02:20;99250.50;;;18.24;76.22
83118;BME280;73000;51.784;4.660;2023-10-19T12:04:46;99244.28;;;18.35;75.88
83118;BME280;73000;51.784;4.660;2023-10-19T12:07:11;99230.97;;;18.28;76.60
83118;BME280;73000;51.784;4.660;2023-10-19T12:09:37;99233.16;;;18.38;76.58
83118;BME280;73000;51.784;4.660;2023-10-19T12:12:02;99240.00;;;18.18;76.10
83118;BME280;73000;51.784;4.660;2023-10-19T12:14:31;99237.41;;;18.02;76.95
83118;BME280;73000;51.784;4.660;2023-10-19T12:16:59;99242.28;;;18.09;76.78
83118;BME280;73000;51.784;4.660;2023-10-19T12:19:26;99242.31;;;18.12;77.06
83118;BME280;73000;51.784;4.660;2023-10-19T12:21:53;99239.97;;;18.14;76.76
83118;BME280;73000;51.784;4.660;2023-10-19T12:24:18;99236.31;;;18.10;77.19
83118;BME280;73000;51.784;4.660;2023-10-19T12:26:45;99229.03;;;18.06;77.84
83118;BME280;73000;51.784;4.660;2023-10-19T12:29:11;99229.88;;;18.06;77.14
83118;BME280;73000;51.784;4.660;2023-10-19T12:31:39;99226.22;;;18.02;77.20
83118;BME280;73000;51.784;4.660;2023-10-19T12:34:05;99217.59;;;17.88;78.01
83118;BME280;73000;51.784;4.660;2023-10-19T12:36:31;99221.50;;;17.84;77.98
83118;BME280;73000;51.784;4.660;2023-10-19T12:38:57;99218.50;;;17.96;78.10
83118;BME280;73000;51.784;4.660;2023-10-19T12:41:23;99222.06;;;17.93;78.11
83118;BME280;73000;51.784;4.660;2023-10-19T12:43:56;99210.97;;;18.00;77.92
83118;BME280;73000;51.784;4.660;2023-10-19T12:46:26;99222.47;;;18.21;77.78
83118;BME280;73000;51.784;4.660;2023-10-19T12:48:52;99214.31;;;18.09;78.17
83118;BME280;73000;51.784;4.660;2023-10-19T12:51:19;99223.41;;;18.02;78.61
83118;BME280;73000;51.784;4.660;2023-10-19T12:53:51;99221.09;;;18.08;78.55
83118;BME280;73000;51.784;4.660;2023-10-19T12:56:18;99211.91;;;18.11;78.73
83118;BME280;73000;51.784;4.660;2023-10-19T12:58:43;99217.59;;;18.14;78.28
83118;BME280;73000;51.784;4.660;2023-10-19T13:01:09;99191.06;;;18.05;79.08
83118;BME280;73000;51.784;4.660;2023-10-19T13:03:42;99201.69;;;18.22;79.04
83118;BME280;73000;51.784;4.660;2023-10-19T13:06:10;99202.19;;;17.75;80.77
83118;BME280;73000;51.784;4.660;2023-10-19T13:08:37;99199.47;;;17.79;80.73
83118;BME280;73000;51.784;4.660;2023-10-19T13:11:03;99200.53;;;17.97;80.49
83118;BME280;73000;51.784;4.660;2023-10-19T13:13:28;99190.25;;;18.04;79.88